Meteo Giornale » Osservazioni meteo Australia » Amberley
ore: 04:30 - Osservazioni Meteo Amberley
Lat. 27° 38' S Lon. 152° 43' E Alt. 28 metri s.l.m.
8 °C
Pioggia
Temp. 24 Ore
6 °C
25 °C
Nord
0 Km/h
Dew point 8 °C
Umidità 100 %
Visibilità 0.15 Km
Il sole sorge alle ore 06:02
Il sole tramonta alle ore 17:35
| Data e Ora | Cielo e Fenomeni | T °C | DP °C | Um. % | Pres. hPa | Vis. km | Vento km/h | |
|---|---|---|---|---|---|---|---|---|
| Oggi h: 04:30 | Pioggia | 8 | 8 | 100 | 1027 | 0.15 | N 0 | |
| Oggi h: 04:22 | Pioggia | 8 | 8 | 100 | 1027 | 0.5 | N 0 | |
| Oggi h: 04:00 | Nebbia | 8 | 8 | 100 | 1027 | 0.1 | N 0 | |
| Oggi h: 03:32 | Nebbia | 9 | 9 | 100 | 1027 | 0.35 | N 0 | |
| Oggi h: 03:30 | Nebbia | 9 | 9 | 100 | 1027 | 0.5 | N 0 | |
| Oggi h: 03:11 | Nebbia | 10 | 10 | 100 | 1027 | 0.8 | N 3.7 | |
| Oggi h: 03:05 | Nuvoloso | 11 | 10 | 93 | 1027 | 6 | N 3.7 | |
| Oggi h: 02:30 | Molto Nuvoloso | 11 | 10 | 93 | 1028 | 10 | N 5.5 | |
| Oggi h: 02:18 | Molto Nuvoloso | 10 | 10 | 100 | 1028 | 10 | N 5.5 | |
| Oggi h: 02:00 | Foschia | 10 | 10 | 100 | 1028 | 2 | N 0 | |
| Oggi h: 01:56 | Foschia | 10 | 10 | 100 | 1028 | 4 | N 0 | |
| Oggi h: 01:37 | Sereno | 10 | 10 | 100 | 1028 | 9 | N 0 | |
| Oggi h: 01:30 | Sereno | 11 | 10 | 93 | 1028 | 7 | N 0 | |
| Oggi h: 01:12 | Foschia | 11 | 10 | 93 | 1028 | 4 | N 0 | |
| Oggi h: 01:07 | Sereno | 11 | 10 | 93 | 1028 | 10 | N 0 | |
| Oggi h: 01:00 | Sereno | 11 | 11 | 100 | 1029 | 10 | N 0 | |
| Oggi h: 00:55 | Foschia | 11 | 11 | 100 | 1029 | 1 | N 1.8 | |
| Oggi h: 00:43 | Nebbia | 11 | 11 | 100 | 1029 | 0.9 | N 5.5 | |
| Oggi h: 00:39 | Foschia | 11 | 11 | 100 | 1029 | 1 | N 5.5 | |
| Oggi h: 00:30 | Nebbia | 11 | 11 | 100 | 1029 | 0.9 | N 3.7 | |
| Oggi h: 00:11 | Foschia | 11 | 10 | 93 | 1029 | 5 | N 5.5 | |
| Oggi h: 00:00 | Sereno | 11 | 11 | 100 | 1029 | 10 | S/SO 7.4 | |
| Ieri h: 23:48 | Sereno | 11 | 11 | 100 | 1029 | 10 | S/SO 7.4 | |
| Ieri h: 23:30 | Sereno | 12 | 11 | 93 | 1029 | 6 | N 3.7 | |
| Ieri h: 23:06 | Foschia | 12 | 12 | 100 | 1029 | 5 | S/SO 7.4 | |
| Ieri h: 23:00 | Poco Nuvoloso | 13 | 12 | 93 | 1029 | 10 | S/SO 7.4 | |
| Ieri h: 22:30 | Nuvoloso | 13 | 12 | 93 | 1029 | 10 | S/SO 9.3 | |
| Ieri h: 22:00 | Nuvoloso | 14 | 13 | 93 | 1029 | 10 | N 1.8 | |
| Ieri h: 21:30 | Sereno | 15 | 14 | 93 | 1029 | 10 | N 1.8 | |
| Ieri h: 21:00 | Sereno | 16 | 13 | 82 | 1029 | 10 | E 7.4 | |
| Ieri h: 20:30 | Sereno | 17 | 14 | 82 | 1029 | 10 | E 7.4 | |
| Ieri h: 20:00 | Nuvoloso | 18 | 14 | 77 | 1029 | 10 | E 11.1 | |
| Ieri h: 19:30 | Nuvoloso | 19 | 14 | 72 | 1028 | 10 | E/NE 14.8 | |
| Ieri h: 19:00 | Sereno | 19 | 14 | 72 | 1028 | 10 | E/NE 14.8 | |
| Ieri h: 18:30 | Nuvoloso | 19 | 13 | 68 | 1028 | 10 | E/NE 13 | |
| Ieri h: 18:00 | Nuvoloso | 19 | 13 | 68 | 1028 | 10 | E/NE 20.3 | |
| Ieri h: 17:30 | Nuvoloso | 20 | 13 | 64 | 1027 | 10 | E/NE 24 | |
| Ieri h: 17:00 | Nuvoloso | 20 | 14 | 68 | 1027 | 10 | E/NE 25.9 | |
| Ieri h: 16:30 | Nuvoloso | 22 | 14 | 60 | 1027 | 10 | E 24 | |
| Ieri h: 16:00 | Nuvoloso | 23 | 14 | 56 | 1026 | 10 | E 25.9 | |
| Ieri h: 15:30 | Nuvoloso | 23 | 13 | 53 | 1026 | 10 | E 22.2 | |
| Ieri h: 15:00 | Nuvoloso | 24 | 12 | 47 | 1026 | 10 | E 20.3 | |
| Ieri h: 14:30 | Nuvoloso | 25 | 12 | 44 | 1026 | 10 | E/NE 16.7 | |
| Ieri h: 14:00 | Nuvoloso | 25 | 12 | 44 | 1026 | 10 | NE 14.8 | |
| Ieri h: 13:30 | Nuvoloso | 25 | 12 | 44 | 1027 | 10 | E 11.1 | |
| Ieri h: 13:00 | Nuvoloso | 25 | 12 | 44 | 1027 | 10 | E/NE 14.8 | |
| Ieri h: 12:30 | Molto Nuvoloso | 24 | 11 | 43 | 1027 | 10 | E/NE 11.1 | |
| Ieri h: 12:00 | Molto Nuvoloso | 24 | 11 | 43 | 1028 | 10 | E/SE 14.8 | |
| Ieri h: 11:30 | Molto Nuvoloso | 24 | 10 | 41 | 1028 | 10 | E 13 | |
| Ieri h: 11:00 | Nuvoloso | 23 | 10 | 43 | 1028 | 10 | E/SE 7.4 | |
| Ieri h: 10:30 | Poco Nuvoloso | 23 | 11 | 46 | 1029 | 10 | NE 14.8 | |
| Ieri h: 10:00 | Poco Nuvoloso | 22 | 12 | 53 | 1029 | 10 | E/NE 11.1 | |
| Ieri h: 09:30 | Poco Nuvoloso | 20 | 12 | 59 | 1029 | 10 | N 5.5 | |
| Ieri h: 09:00 | Poco Nuvoloso | 19 | 12 | 63 | 1030 | 10 | S/SO 9.3 | |
| Ieri h: 08:30 | Poco Nuvoloso | 17 | 13 | 77 | 1029 | 10 | S/SO 9.3 | |
| Ieri h: 08:00 | Sereno | 15 | 12 | 82 | 1029 | 10 | N 3.7 | |
| Ieri h: 07:30 | Poco Nuvoloso | 13 | 12 | 93 | 1029 | 10 | N 3.7 | |
| Ieri h: 07:00 | Poco Nuvoloso | 10 | 10 | 100 | 1029 | 10 | N/NO 9.3 | |
| Ieri h: 06:30 | Poco Nuvoloso | 7 | 7 | 100 | 1029 | 10 | N/NO 7.4 | |
| Ieri h: 06:00 | Nuvoloso | 7 | 7 | 100 | 1029 | 10 | N 9.3 | |
| Ieri h: 05:52 | Sereno | 6 | 6 | 100 | 1029 | 10 | N 7.4 | |
| Ieri h: 05:30 | Pioggia | 7 | 7 | 100 | 1028 | 0.6 | N 5.5 | |
| Ieri h: 05:10 | Foschia | 8 | 7 | 93 | 1028 | 5 | N 3.7 | |
| Ieri h: 05:09 | Sereno | 8 | 7 | 93 | 1028 | 10 | N 3.7 | |
| Ieri h: 05:00 | Pioggia | 7 | 7 | 100 | 1028 | 7 | N 7.4 | |
| Ieri h: 04:43 | Foschia | 8 | 8 | 100 | 1028 | 5 | N 9.3 | |



